Time;durP1;ratioP1;P1;durP2;ratioP2;P2;SDS_P1;SDS_P2;PMS_P1;PMS_P2;Temp;Humidity;BMP_temperature;BMP_pressure;BME280_temperature;BME280_humidity;BME280_pressure;Samples;Min_cycle;Max_cycle;Signal;HPM_P1;HPM_P2
2022/10/02 00:00:15;;;;;;;13.30;3.13;;;;;;;18.76;60.07;101303.47;5032647;28;20079;-69
2022/10/02 00:02:46;;;;;;;19.88;4.07;;;;;;;17.97;62.56;101310.97;5031619;28;20037;-70
2022/10/02 00:05:29;;;;;;;21.67;6.18;;;;;;;18.24;61.81;101313.53;5032584;28;20394;-67
2022/10/02 00:08:32;;;;;;;17.65;3.00;;;;;;;18.40;61.71;101312.53;5033054;28;20593;-69
2022/10/02 00:11:07;;;;;;;17.58;4.53;;;;;;;19.09;58.68;101313.91;4971185;28;20062;-68
2022/10/02 00:13:47;;;;;;;16.60;2.55;;;;;;;18.67;60.08;101307.78;4970987;28;20055;-69
2022/10/02 00:16:32;;;;;;;16.88;3.15;;;;;;;19.05;58.87;101301.06;4970779;28;20053;-68
2022/10/02 00:18:58;;;;;;;15.13;3.03;;;;;;;18.97;59.76;101304.31;4970938;28;20050;-68
2022/10/02 00:21:39;;;;;;;21.88;3.00;;;;;;;18.97;59.31;101301.59;4970510;28;20062;-67
2022/10/02 00:24:06;;;;;;;;;;;;;;;18.88;59.42;101304.06;4971434;28;20121;-69
2022/10/02 00:26:56;;;;;;;19.30;2.58;;;;;;;18.52;60.64;101313.19;4970765;28;20259;-69
2022/10/02 00:29:51;;;;;;;14.68;2.47;;;;;;;19.00;59.31;101307.34;4970527;28;20043;-69
2022/10/02 00:32:35;;;;;;;16.10;3.15;;;;;;;18.91;59.45;101310.84;4969670;28;20049;-67
2022/10/02 00:35:21;;;;;;;19.08;3.25;;;;;;;19.23;59.23;101314.19;4970268;28;20043;-69
2022/10/02 00:38:05;;;;;;;21.95;4.65;;;;;;;19.04;59.85;101313.06;4970167;28;20093;-68
2022/10/02 00:41:02;;;;;;;14.70;2.47;;;;;;;19.33;58.99;101316.13;4970115;28;20733;-69
2022/10/02 00:43:44;;;;;;;16.63;2.95;;;;;;;18.79;60.65;101323.91;4970066;28;20117;-68
2022/10/02 00:46:34;;;;;;;16.27;2.78;;;;;;;18.90;60.71;101333.75;4984835;28;20041;-69
2022/10/02 00:49:31;;;;;;;11.30;2.55;;;;;;;18.57;61.86;101332.28;5011257;28;20052;-67
2022/10/02 00:52:20;;;;;;;13.43;3.10;;;;;;;18.80;60.83;101334.53;5011437;28;20041;-68
2022/10/02 00:55:30;;;;;;;20.90;3.55;;;;;;;19.41;59.39;101338.22;5011747;28;20053;-69
2022/10/02 00:58:12;;;;;;;20.95;3.00;;;;;;;18.60;61.92;101337.16;5009390;28;20588;-69
2022/10/02 01:00:43;;;;;;;26.52;3.38;;;;;;;18.68;62.19;101342.09;5009453;28;20056;-66
2022/10/02 01:03:21;;;;;;;11.23;2.08;;;;;;;18.54;62.20;101338.22;5009223;28;20387;-67
2022/10/02 01:05:46;;;;;;;13.40;2.45;;;;;;;18.51;62.12;101340.66;5009565;28;20041;-65
2022/10/02 01:08:12;;;;;;;19.48;2.78;;;;;;;18.89;61.03;101327.47;5009407;28;20037;-68
2022/10/02 01:10:38;;;;;;;18.35;3.20;;;;;;;19.43;58.09;101329.78;5009723;28;20077;-68
2022/10/02 01:13:04;;;;;;;17.20;2.42;;;;;;;19.43;58.43;101336.06;5009061;28;20628;-70
2022/10/02 01:15:35;;;;;;;17.80;3.03;;;;;;;19.00;59.31;101328.31;5008887;28;20100;-68
2022/10/02 01:18:02;;;;;;;6.95;1.95;;;;;;;18.60;60.60;101329.00;5009465;28;20048;-69
2022/10/02 01:20:41;;;;;;;15.63;2.45;;;;;;;19.00;59.06;101331.03;5008833;28;20038;-67
2022/10/02 01:23:24;;;;;;;10.07;1.85;;;;;;;19.08;58.53;101327.78;5009397;28;20054;-66
2022/10/02 01:25:50;;;;;;;11.32;2.75;;;;;;;19.08;57.74;101334.06;5009231;28;20060;-68
2022/10/02 01:28:16;;;;;;;9.38;2.35;;;;;;;18.77;58.65;101334.25;5008896;28;20065;-67
2022/10/02 01:30:46;;;;;;;13.10;2.85;;;;;;;19.41;56.57;101334.69;5008391;28;20060;-68
2022/10/02 01:33:14;;;;;;;15.00;1.73;;;;;;;18.65;58.60;101337.22;4992483;28;20034;-69
2022/10/02 01:35:40;;;;;;;8.48;1.95;;;;;;;18.82;57.40;101348.69;5026618;28;20048;-67
2022/10/02 01:38:15;;;;;;;11.00;2.30;;;;;;;18.78;57.70;101346.75;5031643;28;20465;-68
2022/10/02 01:40:41;;;;;;;9.63;2.05;;;;;;;19.16;56.24;101351.78;5031400;28;20037;-68
2022/10/02 01:43:18;;;;;;;7.40;1.63;;;;;;;18.62;58.19;101348.59;5030884;28;20041;-67
2022/10/02 01:46:04;;;;;;;10.15;1.50;;;;;;;18.83;57.12;101342.16;5031055;28;20156;-68
2022/10/02 01:48:48;;;;;;;5.68;1.33;;;;;;;18.47;58.83;101351.28;5031068;28;20533;-69
2022/10/02 01:51:31;;;;;;;8.45;1.80;;;;;;;17.66;62.22;101363.47;5031008;28;20037;-69
2022/10/02 01:54:08;;;;;;;11.70;2.08;;;;;;;18.27;60.72;101359.28;5031030;28;20045;-68
2022/10/02 01:56:54;;;;;;;9.23;1.30;;;;;;;18.74;58.84;101360.09;5031139;28;20545;-67
2022/10/02 01:59:31;;;;;;;12.70;2.42;;;;;;;18.30;59.93;101359.56;5031237;28;20497;-68
2022/10/02 02:02:35;;;;;;;7.70;1.60;;;;;;;18.50;59.28;101360.78;5031602;28;20108;-68
2022/10/02 02:05:30;;;;;;;11.13;1.60;;;;;;;17.99;60.49;101363.19;5008673;28;20524;-69
2022/10/02 02:08:42;;;;;;;6.60;2.35;;;;;;;18.61;57.94;101352.44;5008698;28;20077;-68
2022/10/02 02:11:16;;;;;;;9.05;1.48;;;;;;;18.59;58.41;101351.06;4998050;28;20053;-68
2022/10/02 02:13:48;;;;;;;7.85;1.50;;;;;;;18.15;59.38;101359.50;5008978;28;20041;-67
2022/10/02 02:16:41;;;;;;;14.60;2.45;;;;;;;17.95;61.14;101362.06;5008010;28;20038;-69
2022/10/02 02:19:35;;;;;;;17.25;2.60;;;;;;;18.09;60.65;101357.81;5008568;28;20042;-69
2022/10/02 02:22:21;;;;;;;10.90;1.48;;;;;;;18.30;60.01;101364.19;4969255;28;20095;-68
2022/10/02 02:25:07;;;;;;;9.98;2.10;;;;;;;18.33;59.99;101360.97;4953376;28;20063;-67
2022/10/02 02:27:39;;;;;;;10.60;1.67;;;;;;;18.37;60.04;101364.78;4971324;28;20043;-69
2022/10/02 02:30:10;;;;;;;21.80;3.25;;;;;;;18.04;60.99;101360.50;4972778;28;20101;-68
2022/10/02 02:32:42;;;;;;;17.13;2.30;;;;;;;18.21;60.88;101366.59;4973009;28;20026;-67
2022/10/02 02:35:19;;;;;;;13.55;2.42;;;;;;;18.47;60.61;101364.88;4972835;28;20062;-68
2022/10/02 02:37:48;;;;;;;15.35;1.98;;;;;;;18.25;61.07;101356.84;4973434;28;20082;-67
2022/10/02 02:40:22;;;;;;;14.02;2.13;;;;;;;18.41;61.43;101357.75;4972785;28;20074;-68
2022/10/02 02:42:58;;;;;;;20.92;3.72;;;;;;;18.20;62.29;101361.44;4972533;28;20043;-69
2022/10/02 02:45:29;;;;;;;17.55;3.28;;;;;;;18.61;60.82;101363.31;4972458;28;20093;-69
2022/10/02 02:47:56;;;;;;;;;;;;;;;18.16;62.36;101369.28;4973347;28;20050;-67
2022/10/02 02:50:24;;;;;;;29.15;5.38;;;;;;;18.72;61.64;101367.72;4972522;28;19910;-68
2022/10/02 02:52:57;;;;;;;23.45;4.20;;;;;;;18.54;61.78;101372.78;4973028;28;20447;-69
2022/10/02 02:55:27;;;;;;;18.08;3.22;;;;;;;18.73;60.85;101374.78;4972559;28;20071;-68
2022/10/02 02:58:19;;;;;;;19.85;3.33;;;;;;;19.23;58.76;101365.97;4983826;28;20038;-67
2022/10/02 03:00:45;;;;;;;16.33;3.13;;;;;;;18.71;60.92;101379.69;5013932;28;20048;-70
2022/10/02 03:03:10;;;;;;;19.35;2.47;;;;;;;18.35;62.10;101377.84;5014054;28;20562;-68
2022/10/02 03:05:41;;;;;;;16.92;4.15;;;;;;;18.67;60.99;101386.72;5013842;28;20046;-68
2022/10/02 03:08:33;;;;;;;17.08;3.15;;;;;;;18.30;62.47;101375.91;5014430;28;20030;-68
2022/10/02 03:11:08;;;;;;;22.60;2.70;;;;;;;18.03;63.08;101377.91;5014114;28;20385;-69
2022/10/02 03:13:57;;;;;;;18.77;2.80;;;;;;;18.19;63.01;101382.38;5029331;28;20117;-69
2022/10/02 03:16:41;;;;;;;16.50;2.83;;;;;;;18.33;63.20;101394.44;5033135;28;20436;-69
2022/10/02 03:19:09;;;;;;;17.55;2.67;;;;;;;18.23;63.07;101391.66;5033409;28;20481;-69
2022/10/02 03:21:50;;;;;;;18.17;2.97;;;;;;;18.53;61.93;101380.16;5033467;28;20111;-69
2022/10/02 03:24:22;;;;;;;15.45;2.53;;;;;;;17.82;64.31;101388.88;5033167;28;20137;-67
2022/10/02 03:27:09;;;;;;;14.60;3.33;;;;;;;18.23;63.51;101375.31;5033515;28;20485;-68
2022/10/02 03:29:42;;;;;;;15.65;2.50;;;;;;;18.06;64.04;101392.88;5047956;28;20132;-67
2022/10/02 03:32:10;;;;;;;32.85;4.53;;;;;;;17.83;64.30;101388.63;5033450;28;20040;-67
2022/10/02 03:34:37;;;;;;;24.17;3.58;;;;;;;17.83;64.37;101380.47;5033762;28;20040;-68
2022/10/02 03:37:03;;;;;;;22.73;3.85;;;;;;;18.22;63.05;101384.56;5015289;28;20072;-68
2022/10/02 03:39:28;;;;;;;18.33;3.17;;;;;;;18.39;62.94;101374.34;5032872;28;20025;-68
2022/10/02 03:41:54;;;;;;;17.67;3.17;;;;;;;18.26;62.62;101384.84;5033198;28;20414;-67
2022/10/02 03:44:19;;;;;;;22.35;4.47;;;;;;;18.46;62.19;101385.00;5032837;28;20033;-67
2022/10/02 03:46:45;;;;;;;13.68;3.38;;;;;;;18.02;64.39;101398.03;5033459;28;20030;-69
2022/10/02 03:49:10;;;;;;;18.92;3.90;;;;;;;18.46;62.70;101386.91;5033000;28;20037;-68
2022/10/02 03:51:36;;;;;;;30.33;4.88;;;;;;;18.32;63.17;101402.84;5032740;28;20037;-69
2022/10/02 03:54:01;;;;;;;21.48;3.85;;;;;;;18.21;63.51;101398.44;5032848;28;20045;-67
2022/10/02 03:56:49;;;;;;;22.80;3.45;;;;;;;18.53;62.41;101396.50;5031576;28;20033;-70
2022/10/02 03:59:29;;;;;;;19.08;3.08;;;;;;;18.25;62.78;101404.97;5032635;28;20100;-69
2022/10/02 04:01:56;;;;;;;21.70;3.60;;;;;;;17.78;64.04;101410.34;5022833;28;20041;-68
2022/10/02 04:04:43;;;;;;;24.05;4.53;;;;;;;18.71;61.42;101408.81;5012351;28;20038;-68
2022/10/02 04:07:16;;;;;;;21.17;3.40;;;;;;;17.85;63.90;101408.22;5016025;28;20040;-68
2022/10/02 04:10:01;;;;;;;18.80;3.20;;;;;;;18.02;63.78;101410.81;5028455;28;20038;-69
2022/10/02 04:12:34;;;;;;;34.35;4.22;;;;;;;17.94;63.46;101414.84;5024613;28;20026;-67
2022/10/02 04:15:13;;;;;;;17.30;3.25;;;;;;;17.96;64.33;101420.00;5030676;28;20046;-66
2022/10/02 04:17:58;;;;;;;16.27;3.88;;;;;;;17.80;64.75;101419.06;5052472;28;20048;-69
2022/10/02 04:20:32;;;;;;;24.38;4.70;;;;;;;18.12;63.08;101424.50;5042584;28;20033;-69
2022/10/02 04:23:10;;;;;;;32.35;5.55;;;;;;;18.63;61.75;101417.50;5032719;28;20406;-68
2022/10/02 04:25:40;;;;;;;31.50;5.30;;;;;;;18.51;62.00;101422.31;5032198;28;20058;-69
2022/10/02 04:28:12;;;;;;;22.60;3.70;;;;;;;18.72;60.81;101424.06;5032243;28;20030;-68
2022/10/02 04:30:38;;;;;;;31.20;4.55;;;;;;;18.92;60.50;101425.00;5031962;28;20045;-69
2022/10/02 04:33:33;;;;;;;23.50;5.03;;;;;;;18.94;60.87;101430.16;5032110;28;20034;-68
2022/10/02 04:36:05;;;;;;;25.65;3.92;;;;;;;18.43;61.98;101431.81;4970463;28;20042;-70
2022/10/02 04:38:48;;;;;;;17.13;2.92;;;;;;;18.33;62.74;101429.00;4970557;28;20150;-68
2022/10/02 04:41:16;;;;;;;20.25;4.20;;;;;;;18.18;63.00;101437.06;4969870;28;20051;-69
2022/10/02 04:43:49;;;;;;;23.10;3.47;;;;;;;18.64;62.11;101433.56;4970230;28;20047;-68
2022/10/02 04:46:32;;;;;;;20.08;5.45;;;;;;;18.81;61.41;101442.34;4969579;28;20145;-68
2022/10/02 04:49:27;;;;;;;29.83;4.88;;;;;;;18.34;63.38;101441.50;4969262;28;20034;-68
2022/10/02 04:52:22;;;;;;;17.27;3.15;;;;;;;19.01;60.82;101439.72;4950993;28;20047;-68
2022/10/02 04:54:57;;;;;;;33.60;5.10;;;;;;;18.59;62.13;101441.72;4950548;28;20527;-66
2022/10/02 04:57:56;;;;;;;29.15;3.67;;;;;;;18.73;62.18;101442.84;4950718;28;20427;-67
2022/10/02 05:00:24;;;;;;;31.02;5.10;;;;;;;19.01;60.98;101449.81;4950562;28;20050;-68
2022/10/02 05:02:59;;;;;;;24.95;3.33;;;;;;;19.25;60.54;101443.66;4950563;28;20031;-69
2022/10/02 05:05:30;;;;;;;20.70;4.30;;;;;;;19.62;58.79;101450.84;4950421;28;20062;-70
2022/10/02 05:08:14;;;;;;;24.45;4.10;;;;;;;19.60;58.91;101448.38;4951345;29;20428;-70
2022/10/02 05:11:13;;;;;;;24.65;3.20;;;;;;;19.70;58.27;101445.69;4951329;29;20109;-67
2022/10/02 05:13:59;;;;;;;29.05;3.65;;;;;;;19.67;58.28;101437.22;5027740;28;20119;-68
2022/10/02 05:16:43;;;;;;;16.67;3.47;;;;;;;19.37;59.08;101437.97;5031302;28;20068;-70
2022/10/02 05:19:23;;;;;;;14.27;2.63;;;;;;;19.56;58.83;101432.81;5031388;28;20029;-69
2022/10/02 05:21:49;;;;;;;21.95;4.90;;;;;;;19.57;58.68;101440.75;5031527;28;20069;-68
2022/10/02 05:24:29;;;;;;;17.33;3.17;;;;;;;19.16;60.15;101455.34;5031564;28;20568;-70
2022/10/02 05:27:16;;;;;;;28.90;3.95;;;;;;;19.15;60.00;101454.50;5031490;28;20128;-71
2022/10/02 05:30:11;;;;;;;16.58;3.28;;;;;;;19.29;59.11;101452.94;5031355;28;20045;-69
2022/10/02 05:32:53;;;;;;;26.70;4.50;;;;;;;19.24;59.46;101460.28;5031262;28;20409;-67
2022/10/02 05:35:21;;;;;;;20.23;4.93;;;;;;;18.97;60.32;101460.41;5031266;28;20084;-69
2022/10/02 05:38:02;;;;;;;17.85;4.20;;;;;;;18.73;61.19;101464.63;5031662;28;20038;-69
2022/10/02 05:41:06;;;;;;;25.42;4.07;;;;;;;18.77;61.17;101463.03;5031314;28;20053;-68
2022/10/02 05:43:43;;;;;;;19.50;4.07;;;;;;;18.36;62.95;101469.25;5029534;28;20049;-68
2022/10/02 05:46:20;;;;;;;27.42;4.00;;;;;;;18.41;62.90;101475.59;5031198;28;20520;-68
2022/10/02 05:48:58;;;;;;;22.30;3.72;;;;;;;18.39;62.29;101488.63;5031209;28;20029;-68
2022/10/02 05:51:52;;;;;;;22.90;4.72;;;;;;;18.54;62.08;101493.38;5030970;28;20041;-69
2022/10/02 05:54:29;;;;;;;18.00;3.45;;;;;;;18.40;62.50;101495.72;5008803;28;20058;-67
2022/10/02 05:57:05;;;;;;;31.92;4.07;;;;;;;18.43;63.09;101497.13;5008502;28;20038;-69
2022/10/02 05:59:42;;;;;;;25.67;3.75;;;;;;;18.57;62.25;101503.78;5008640;28;20042;-67
2022/10/02 06:02:23;;;;;;;22.23;4.22;;;;;;;18.74;61.91;101496.25;5011538;28;20478;-73
2022/10/02 06:05:02;;;;;;;18.73;3.03;;;;;;;19.21;60.55;101494.31;5013021;28;20080;-74
2022/10/02 06:07:29;;;;;;;24.50;4.15;;;;;;;19.02;60.31;101495.88;5012660;28;20133;-73
2022/10/02 06:10:16;;;;;;;28.40;4.05;;;;;;;19.16;60.52;101507.09;5012678;28;20088;-72
2022/10/02 06:12:51;;;;;;;19.55;4.18;;;;;;;18.97;61.19;101506.72;5011718;28;20038;-73
2022/10/02 06:15:30;;;;;;;25.27;4.07;;;;;;;19.57;59.10;101513.56;5012256;28;20056;-72
2022/10/02 06:18:12;;;;;;;23.08;3.97;;;;;;;19.68;58.95;101523.38;5011212;28;20045;-73
2022/10/02 06:20:54;;;;;;;25.25;3.63;;;;;;;19.68;58.59;101515.22;5021330;28;20134;-74
2022/10/02 06:23:26;;;;;;;15.00;3.35;;;;;;;19.50;59.57;101513.78;5021357;28;20050;-72
2022/10/02 06:26:01;;;;;;;24.38;5.13;;;;;;;19.21;60.33;101507.13;5013990;28;20141;-72
2022/10/02 06:28:37;;;;;;;25.55;3.70;;;;;;;19.41;60.22;101518.13;5004775;28;20045;-74
2022/10/02 06:31:21;;;;;;;20.33;4.10;;;;;;;19.09;61.71;101517.41;5001372;28;20054;-75
2022/10/02 06:33:47;;;;;;;20.05;3.80;;;;;;;19.00;61.92;101516.28;5014763;28;20552;-75
2022/10/02 06:36:31;;;;;;;23.10;5.32;;;;;;;19.32;61.01;101516.97;5014958;28;20038;-74
2022/10/02 06:39:50;;;;;;;24.98;3.90;;;;;;;19.47;60.07;101519.78;5032274;28;20050;-74
2022/10/02 06:42:34;;;;;;;17.08;3.80;;;;;;;19.43;60.63;101526.88;4974421;28;20054;-74
2022/10/02 06:45:45;;;;;;;19.35;3.67;;;;;;;19.16;61.35;101540.59;4992183;28;20047;-75
2022/10/02 06:48:25;;;;;;;23.30;4.43;;;;;;;19.31;61.42;101534.41;4972717;28;20035;-76
2022/10/02 06:51:22;;;;;;;27.77;5.35;;;;;;;19.68;60.11;101539.75;4959354;28;20411;-76
2022/10/02 06:54:18;;;;;;;27.30;4.15;;;;;;;19.28;60.82;101543.94;4953501;28;20118;-74
2022/10/02 06:57:20;;;;;;;25.85;4.72;;;;;;;19.95;59.54;101540.38;4970537;28;20034;-74
2022/10/02 07:00:12;;;;;;;16.15;3.05;;;;;;;19.75;60.32;101560.22;4972257;28;20042;-75
2022/10/02 07:02:40;;;;;;;16.00;2.72;;;;;;;19.16;63.54;101556.16;4972573;28;20129;-82
2022/10/02 07:05:21;;;;;;;20.17;5.00;;;;;;;20.14;59.85;101555.97;4956988;28;20254;-74
2022/10/02 07:08:11;;;;;;;19.17;3.67;;;;;;;20.39;58.25;101554.38;4972594;28;20080;-73
2022/10/02 07:11:09;;;;;;;22.27;4.10;;;;;;;20.58;57.66;101552.75;4953413;29;20082;-75
2022/10/02 07:13:52;;;;;;;20.65;3.65;;;;;;;19.41;61.56;101547.28;4964265;28;20112;-73
2022/10/02 07:16:29;;;;;;;12.73;3.35;;;;;;;20.02;59.11;101552.69;4998554;28;20056;-74
2022/10/02 07:19:03;;;;;;;18.60;3.95;;;;;;;19.76;59.41;101561.88;5029975;28;20493;-74
2022/10/02 07:21:45;;;;;;;16.33;2.80;;;;;;;19.93;59.39;101573.38;5028449;28;20065;-72
2022/10/02 07:24:19;;;;;;;17.38;2.78;;;;;;;19.82;59.74;101570.88;5032490;28;20069;-73
2022/10/02 07:27:10;;;;;;;19.75;4.32;;;;;;;19.84;59.66;101577.72;5032300;28;20045;-74
2022/10/02 07:29:49;;;;;;;13.00;2.42;;;;;;;20.19;58.82;101584.38;4973195;28;20057;-73
2022/10/02 07:32:39;;;;;;;15.05;3.33;;;;;;;20.52;57.06;101586.59;4969805;28;20050;-74
2022/10/02 07:35:47;;;;;;;20.10;3.38;;;;;;;20.06;58.64;101575.59;4971401;28;20053;-71
2022/10/02 07:38:20;;;;;;;10.82;2.35;;;;;;;19.97;59.25;101588.13;4899337;29;20041;-73
2022/10/02 07:41:18;;;;;;;18.38;4.68;;;;;;;19.75;59.77;101587.50;4901788;29;20051;-73
2022/10/02 07:44:14;;;;;;;15.93;4.05;;;;;;;19.63;59.76;101597.00;4903543;29;20409;-74
2022/10/02 07:47:09;;;;;;;14.40;2.30;;;;;;;19.43;61.26;101596.91;4902273;29;20092;-75
2022/10/02 07:49:37;;;;;;;12.98;2.25;;;;;;;19.40;61.45;101600.97;4889663;29;20113;-72
2022/10/02 07:52:41;;;;;;;17.13;2.50;;;;;;;20.13;59.17;101597.97;4884102;29;20092;-75
2022/10/02 07:55:19;;;;;;;13.95;2.20;;;;;;;19.98;60.24;101606.16;4885129;29;20120;-75
2022/10/02 07:58:07;;;;;;;16.50;2.85;;;;;;;20.36;58.88;101609.53;4884658;29;20043;-76
2022/10/02 08:00:42;;;;;;;16.58;4.40;;;;;;;20.49;58.16;101607.06;4885793;29;20108;-74
2022/10/02 08:03:34;;;;;;;24.83;4.22;;;;;;;20.07;58.96;101604.50;4884630;29;20537;-76
2022/10/02 08:06:01;;;;;;;16.00;2.70;;;;;;;19.97;60.54;101611.84;4898673;29;20035;-74
2022/10/02 08:08:46;;;;;;;16.73;2.42;;;;;;;20.27;59.88;101608.41;4941295;29;20055;-73
2022/10/02 08:11:17;;;;;;;21.88;4.68;;;;;;;20.26;59.60;101607.59;4940963;29;20066;-74
2022/10/02 08:14:07;;;;;;;17.40;2.60;;;;;;;20.22;60.01;101616.59;4941773;29;20023;-75
2022/10/02 08:16:39;;;;;;;17.35;2.90;;;;;;;20.73;58.33;101612.81;5040666;28;20037;-74
2022/10/02 08:19:12;;;;;;;22.80;3.83;;;;;;;20.09;60.25;101626.91;5035465;28;20048;-75
2022/10/02 08:21:42;;;;;;;20.52;2.75;;;;;;;20.60;59.22;101627.03;5032844;28;20052;-74
2022/10/02 08:24:25;;;;;;;14.45;3.35;;;;;;;20.22;59.83;101632.97;5010488;28;20057;-76
2022/10/02 08:27:01;;;;;;;16.90;2.47;;;;;;;20.29;59.39;101628.06;5012694;28;20065;-74
2022/10/02 08:29:39;;;;;;;20.83;3.35;;;;;;;20.57;58.82;101636.56;5015172;28;20037;-74
2022/10/02 08:32:12;;;;;;;18.80;2.60;;;;;;;20.92;57.78;101641.22;5011261;28;20034;-73
2022/10/02 08:34:39;;;;;;;16.38;3.65;;;;;;;20.75;57.79;101635.22;5010447;28;20068;-73
2022/10/02 08:37:32;;;;;;;14.18;3.03;;;;;;;20.94;57.77;101642.59;5010354;28;20038;-76
2022/10/02 08:40:42;;;;;;;18.77;2.45;;;;;;;20.78;58.69;101646.41;5010623;28;20493;-68
2022/10/02 08:43:17;;;;;;;15.10;2.53;;;;;;;20.74;58.24;101656.25;5022458;28;20033;-69
2022/10/02 08:46:16;;;;;;;16.63;2.78;;;;;;;21.65;55.95;101658.88;5030411;28;20496;-69
2022/10/02 08:48:54;;;;;;;14.27;2.72;;;;;;;21.01;57.17;101664.22;5017599;28;20064;-70
2022/10/02 08:51:23;;;;;;;20.92;3.47;;;;;;;21.45;56.34;101665.22;5017086;28;20042;-69
2022/10/02 08:54:30;;;;;;;17.02;2.80;;;;;;;21.26;55.98;101666.91;5013691;28;20145;-68
2022/10/02 08:57:34;;;;;;;18.23;3.13;;;;;;;20.80;56.46;101673.44;5019343;28;20041;-68
2022/10/02 09:00:13;;;;;;;15.00;2.00;;;;;;;21.18;55.89;101675.66;5025834;28;20037;-70
2022/10/02 09:03:03;;;;;;;12.70;2.15;;;;;;;20.85;57.03;101677.00;5023893;28;20038;-70
2022/10/02 09:06:09;;;;;;;15.60;2.25;;;;;;;21.26;56.21;101680.59;5009692;28;20123;-69
2022/10/02 09:08:41;;;;;;;13.88;2.22;;;;;;;20.95;56.74;101678.94;5015168;28;20076;-72
2022/10/02 09:11:51;;;;;;;15.73;3.13;;;;;;;20.54;57.74;101690.94;5009170;28;20494;-72
2022/10/02 09:14:33;;;;;;;16.70;3.57;;;;;;;21.70;55.22;101676.09;4979173;28;20451;-70
2022/10/02 09:17:17;;;;;;;15.05;2.35;;;;;;;21.60;55.60;101686.25;4979260;28;20046;-69
2022/10/02 09:19:59;;;;;;;10.45;2.20;;;;;;;21.51;55.49;101686.00;4984167;28;20154;-69
2022/10/02 09:22:46;;;;;;;18.67;5.20;;;;;;;21.05;56.93;101689.06;4980030;28;20062;-69
2022/10/02 09:25:21;;;;;;;18.52;3.38;;;;;;;21.11;56.60;101694.25;4971085;28;20828;-71
2022/10/02 09:28:21;;;;;;;12.10;2.85;;;;;;;21.07;56.00;101686.91;4976226;28;20174;-70
2022/10/02 09:31:05;;;;;;;20.23;2.75;;;;;;;20.98;55.07;101698.34;4972727;28;20050;-69
2022/10/02 09:33:43;;;;;;;16.63;2.22;;;;;;;21.48;53.44;101704.88;4974789;28;20035;-71
2022/10/02 09:36:54;;;;;;;15.23;2.42;;;;;;;21.08;52.81;101696.72;4983903;28;20691;-72
2022/10/02 09:39:43;;;;;;;17.23;2.33;;;;;;;20.91;53.24;101705.97;4982741;28;20037;-71
2022/10/02 09:42:36;;;;;;;12.30;1.95;;;;;;;21.05;53.32;101702.75;4985628;28;20539;-70
2022/10/02 09:45:28;;;;;;;34.30;3.80;;;;;;;21.30;52.84;101717.22;4982214;28;20514;-70
2022/10/02 09:48:29;;;;;;;18.08;2.30;;;;;;;21.96;52.20;101709.69;4969288;28;20045;-72
2022/10/02 09:51:16;;;;;;;17.98;3.08;;;;;;;22.07;50.13;101721.44;5004207;28;20057;-70
2022/10/02 09:54:20;;;;;;;14.20;3.65;;;;;;;21.62;50.72;101717.69;5008967;28;20325;-69
2022/10/02 09:57:05;;;;;;;18.63;3.38;;;;;;;22.52;48.95;101715.72;5009362;28;20045;-69
2022/10/02 09:59:58;;;;;;;20.85;3.38;;;;;;;22.13;48.97;101715.63;5010485;28;20570;-71
2022/10/02 10:02:42;;;;;;;14.75;2.95;;;;;;;21.24;51.27;101718.31;5010961;28;20042;-71
2022/10/02 10:05:25;;;;;;;14.35;2.70;;;;;;;21.22;51.14;101727.88;4991610;28;20503;-71
2022/10/02 10:08:17;;;;;;;11.45;3.47;;;;;;;21.60;50.75;101732.78;4990779;28;20137;-77
2022/10/02 10:11:06;;;;;;;29.40;3.60;;;;;;;22.15;48.61;101729.88;5009188;28;20050;-72
2022/10/02 10:13:59;;;;;;;15.25;2.20;;;;;;;22.06;48.41;101739.78;5010821;28;20050;-75
2022/10/02 10:16:29;;;;;;;19.40;2.30;;;;;;;21.72;49.09;101738.72;5001221;28;20143;-70
2022/10/02 10:19:21;;;;;;;15.18;2.95;;;;;;;21.34;49.90;101751.13;5004578;28;20041;-77
2022/10/02 10:22:12;;;;;;;15.50;3.08;;;;;;;21.95;48.54;101751.03;5006620;28;20056;-71
2022/10/02 10:25:15;;;;;;;17.30;3.25;;;;;;;21.81;49.28;101756.28;5027754;28;20038;-69
2022/10/02 10:28:10;;;;;;;18.88;2.13;;;;;;;22.17;47.80;101757.78;5042968;28;20036;-68
2022/10/02 10:30:59;;;;;;;11.65;1.92;;;;;;;22.57;47.02;101760.38;5042879;28;20041;-71
2022/10/02 10:34:14;;;;;;;15.90;2.58;;;;;;;21.77;49.21;101760.63;5042105;28;20041;-71
2022/10/02 10:40:05;;;;;;;18.77;3.58;;;;;;;22.07;47.71;101767.97;5038077;28;20083;-71
2022/10/02 10:43:00;;;;;;;11.97;1.93;;;;;;;21.55;49.34;101755.47;5045468;28;20524;-72
2022/10/02 10:45:42;;;;;;;15.45;2.63;;;;;;;21.29;48.39;101772.16;5014937;28;20034;-72
2022/10/02 10:48:31;;;;;;;15.23;2.60;;;;;;;20.36;50.57;101771.44;5035289;28;20037;-69
2022/10/02 10:51:15;;;;;;;13.68;2.08;;;;;;;21.46;48.08;101789.13;5022298;28;20452;-69
2022/10/02 10:54:04;;;;;;;13.52;2.35;;;;;;;21.56;48.71;101778.19;5030831;28;20037;-72
2022/10/02 10:56:41;;;;;;;18.48;2.28;;;;;;;21.37;48.84;101785.28;4998693;28;20049;-71
2022/10/02 10:59:43;;;;;;;12.55;2.85;;;;;;;20.76;51.14;101793.38;5006204;28;20065;-73
2022/10/02 11:02:42;;;;;;;19.38;3.60;;;;;;;20.82;50.75;101791.50;4989978;28;20124;-70
2022/10/02 11:05:26;;;;;;;19.02;5.38;;;;;;;21.63;49.01;101795.13;5006362;28;20068;-70
2022/10/02 11:08:42;;;;;;;14.57;3.17;;;;;;;22.06;48.35;101793.69;5007574;28;20069;-71
2022/10/02 11:11:34;;;;;;;12.43;2.55;;;;;;;21.81;47.44;101789.94;5006690;28;20050;-71
2022/10/02 11:14:18;;;;;;;30.00;4.78;;;;;;;22.46;47.95;101791.66;5007839;28;20053;-71
2022/10/02 11:16:58;;;;;;;20.75;3.08;;;;;;;22.39;47.41;101799.31;5006263;28;20493;-72
2022/10/02 11:19:53;;;;;;;11.55;2.67;;;;;;;21.86;48.21;101812.94;5006843;28;20030;-73
2022/10/02 11:22:49;;;;;;;14.70;2.38;;;;;;;21.43;48.86;101804.16;5006111;28;20045;-71
2022/10/02 11:25:37;;;;;;;19.70;3.10;;;;;;;21.99;47.48;101807.69;5005192;28;20034;-71
2022/10/02 11:28:05;;;;;;;18.13;3.35;;;;;;;22.18;46.42;101816.13;5003897;28;20030;-70
2022/10/02 11:30:52;;;;;;;12.75;2.58;;;;;;;21.58;47.50;101815.09;5005508;28;20049;-72
2022/10/02 11:33:43;;;;;;;15.57;2.22;;;;;;;22.17;46.23;101814.50;5014370;28;20034;-70
2022/10/02 11:36:41;;;;;;;13.50;3.60;;;;;;;21.19;48.84;101818.66;5027684;28;20405;-74
2022/10/02 11:39:16;;;;;;;13.07;2.60;;;;;;;21.16;49.65;101824.66;5028550;28;20045;-69
2022/10/02 11:41:59;;;;;;;21.48;3.63;;;;;;;21.61;48.59;101814.56;5028731;28;20111;-70
2022/10/02 11:44:57;;;;;;;21.73;3.83;;;;;;;20.78;49.17;101834.91;5028278;28;20029;-71
2022/10/02 11:47:45;;;;;;;16.10;2.60;;;;;;;21.38;47.82;101823.31;5028022;28;20037;-71
2022/10/02 11:50:28;;;;;;;17.60;3.38;;;;;;;21.65;46.64;101834.81;5041502;28;20136;-72
2022/10/02 11:52:59;;;;;;;15.75;2.65;;;;;;;21.71;46.22;101824.66;5028860;28;20049;-71
2022/10/02 11:55:42;;;;;;;13.88;2.03;;;;;;;20.94;47.33;101849.44;5027506;28;20041;-73
2022/10/02 11:58:17;;;;;;;18.23;2.88;;;;;;;21.34;47.17;101835.06;5026684;28;20029;-74
2022/10/02 12:01:24;;;;;;;11.60;1.90;;;;;;;21.93;46.16;101838.91;5025930;28;20087;-76
2022/10/02 12:04:32;;;;;;;21.45;3.33;;;;;;;22.25;45.81;101842.09;5026952;28;20386;-71
2022/10/02 12:07:26;;;;;;;17.38;2.85;;;;;;;23.45;43.62;101840.69;5004969;28;20045;-71
2022/10/02 12:10:22;;;;;;;16.65;4.00;;;;;;;23.22;44.32;101846.03;5004840;28;20064;-71
2022/10/02 12:13:15;;;;;;;9.98;2.15;;;;;;;22.14;45.51;101848.72;5002758;28;20041;-73
2022/10/02 12:16:02;;;;;;;19.63;3.55;;;;;;;22.03;45.30;101847.09;5005739;28;20446;-72
2022/10/02 12:18:49;;;;;;;12.00;2.42;;;;;;;21.88;45.53;101854.53;5011687;28;20126;-69
2022/10/02 12:28:10;;;;;;;14.32;3.08;;;;;;;22.07;43.50;101861.06;5005480;28;20049;-73
2022/10/02 12:30:54;;;;;;;12.77;2.13;;;;;;;21.87;43.83;101859.16;5007656;28;20405;-71
2022/10/02 12:33:31;;;;;;;14.13;2.35;;;;;;;22.46;41.92;101859.31;5008398;28;20043;-71
2022/10/02 12:36:14;;;;;;;10.68;1.35;;;;;;;21.96;42.20;101852.03;5009066;28;20048;-71
2022/10/02 12:38:58;;;;;;;10.98;2.05;;;;;;;22.13;41.31;101860.75;5008457;28;20048;-72